createdAt,value
2023-03-02T00:02:43.223Z,99008.91
2023-03-02T00:05:49.532Z,99005.38
2023-03-02T00:08:52.735Z,98993.00
2023-03-02T00:11:55.897Z,98997.38
2023-03-02T00:14:58.613Z,99000.94
2023-03-02T00:18:01.458Z,98987.66
2023-03-02T00:21:04.546Z,98997.41
2023-03-02T00:24:08.051Z,99000.03
2023-03-02T00:27:10.771Z,98979.69
2023-03-02T00:30:15.221Z,98986.75
2023-03-02T00:33:19.917Z,98985.00
2023-03-02T00:36:23.693Z,98982.31
2023-03-02T00:39:26.291Z,98981.44
2023-03-02T00:42:29.362Z,98969.09
2023-03-02T00:45:32.026Z,98972.59
2023-03-02T00:48:35.036Z,98965.53
2023-03-02T00:51:37.920Z,98963.75
2023-03-02T00:54:41.175Z,98952.22
2023-03-02T00:57:44.312Z,98962.88
2023-03-02T01:00:48.596Z,98967.25
2023-03-02T01:03:52.143Z,98948.69
2023-03-02T01:06:59.648Z,98960.19
2023-03-02T01:10:02.632Z,98961.06
2023-03-02T01:13:09.395Z,98954.03
2023-03-02T01:16:12.633Z,98925.69
2023-03-02T01:19:16.538Z,98934.53
2023-03-02T01:22:20.296Z,98937.19
2023-03-02T01:25:23.414Z,98937.19
2023-03-02T01:28:26.109Z,98930.09
2023-03-02T01:31:29.367Z,98923.91
2023-03-02T01:34:32.463Z,98926.53
2023-03-02T01:37:35.345Z,98934.50
2023-03-02T01:40:38.704Z,98923.88
2023-03-02T01:43:41.787Z,98904.37
2023-03-02T01:46:44.374Z,98919.44
2023-03-02T01:50:05.023Z,98911.47
2023-03-02T01:53:09.638Z,98922.06
2023-03-02T01:56:27.124Z,98912.38
2023-03-02T01:59:32.268Z,98879.63
2023-03-02T02:02:36.213Z,98904.37
2023-03-02T02:05:44.136Z,98901.75
2023-03-02T02:08:47.548Z,98886.72
2023-03-02T02:11:50.865Z,98894.69
2023-03-02T02:14:55.153Z,98884.09
2023-03-02T02:17:57.945Z,98877.03
2023-03-02T02:21:01.216Z,98869.06
2023-03-02T02:24:11.722Z,98860.22
2023-03-02T02:27:15.186Z,98873.47
2023-03-02T02:30:18.782Z,98866.41
2023-03-02T02:33:24.770Z,98869.94
2023-03-02T02:36:34.832Z,98874.31
2023-03-02T02:39:42.012Z,98874.34
2023-03-02T02:42:46.724Z,98871.69
2023-03-02T02:45:53.121Z,98869.06
2023-03-02T02:48:56.230Z,98872.59
2023-03-02T02:52:00.608Z,98868.19
2023-03-02T02:55:03.385Z,98868.19
2023-03-02T02:58:25.395Z,98861.09
2023-03-02T03:01:29.418Z,98863.75
2023-03-02T03:04:33.398Z,98861.09
2023-03-02T03:07:37.088Z,98868.16
2023-03-02T03:10:41.488Z,98850.44
2023-03-02T03:13:44.967Z,98861.03
2023-03-02T03:16:49.867Z,98869.00
2023-03-02T03:19:52.596Z,98861.00
2023-03-02T03:22:59.383Z,98871.59
2023-03-02T03:26:02.655Z,98868.03
2023-03-02T03:29:05.727Z,98862.78
2023-03-02T03:32:09.402Z,98863.59
2023-03-02T03:35:12.879Z,98863.59
2023-03-02T03:38:16.804Z,98867.13
2023-03-02T03:41:22.261Z,98866.22
2023-03-02T03:44:25.251Z,98873.22
2023-03-02T03:47:28.320Z,98864.44
2023-03-02T03:50:32.005Z,98836.97
2023-03-02T03:53:35.374Z,98849.41
2023-03-02T03:56:45.031Z,98854.72
2023-03-02T03:59:48.250Z,98851.22
2023-03-02T04:02:51.396Z,98854.72
2023-03-02T04:05:54.991Z,98835.22
2023-03-02T04:08:58.017Z,98860.00
2023-03-02T04:12:01.231Z,98858.19
2023-03-02T04:15:07.083Z,98832.53
2023-03-02T04:18:10.696Z,98852.00
2023-03-02T04:21:14.992Z,98852.00
2023-03-02T04:24:19.231Z,98854.62
2023-03-02T04:27:21.964Z,98859.03
2023-03-02T04:30:26.789Z,98863.44
2023-03-02T04:33:29.816Z,98860.75
2023-03-02T04:36:35.418Z,98868.69
2023-03-02T04:39:38.777Z,98864.28
2023-03-02T04:42:41.933Z,98865.16
2023-03-02T04:45:44.675Z,98864.25
2023-03-02T04:48:47.746Z,98845.69
2023-03-02T04:51:51.113Z,98859.81
2023-03-02T04:54:54.378Z,98866.94
2023-03-02T04:57:57.105Z,98869.59
2023-03-02T05:01:02.341Z,98872.25
2023-03-02T05:04:05.655Z,98867.84
2023-03-02T05:07:09.191Z,98836.84
2023-03-02T05:10:13.158Z,98863.41
2023-03-02T05:13:21.332Z,98868.69
2023-03-02T05:16:25.096Z,98866.03
2023-03-02T05:19:28.277Z,98862.50
2023-03-02T05:22:31.005Z,98862.50
2023-03-02T05:25:35.516Z,98873.09
2023-03-02T05:28:38.450Z,98850.13
2023-03-02T05:31:43.453Z,98874.84
2023-03-02T05:34:46.165Z,98868.69
2023-03-02T05:37:49.448Z,98870.50
2023-03-02T05:40:52.146Z,98874.91
2023-03-02T05:43:55.587Z,98888.19
2023-03-02T05:46:58.344Z,98852.84
2023-03-02T05:50:01.415Z,98876.72
2023-03-02T05:53:05.070Z,98867.06
2023-03-02T05:56:08.788Z,98867.94
2023-03-02T05:59:11.509Z,98878.56
2023-03-02T06:02:14.609Z,98881.19
2023-03-02T06:05:24.825Z,98877.94
2023-03-02T06:08:28.109Z,98884.16
2023-03-02T06:11:31.322Z,98810.66
2023-03-02T06:14:34.956Z,98799.19
2023-03-02T06:17:38.331Z,98841.59
2023-03-02T06:20:42.039Z,98849.53
2023-03-02T06:23:45.258Z,98900.81
2023-03-02T06:26:47.885Z,98904.37
2023-03-02T06:29:51.028Z,98901.00
2023-03-02T06:32:53.815Z,98904.47
2023-03-02T06:35:57.223Z,98901.88
2023-03-02T06:39:00.297Z,98906.31
2023-03-02T06:42:03.589Z,98906.28
2023-03-02T06:45:08.204Z,98901.00
2023-03-02T06:48:11.425Z,98904.50
2023-03-02T06:51:14.541Z,98804.63
2023-03-02T06:54:17.728Z,98913.34
2023-03-02T06:57:20.479Z,98899.22
2023-03-02T07:00:28.224Z,98908.06
2023-03-02T07:03:31.935Z,98908.91
2023-03-02T07:06:34.896Z,98901.81
2023-03-02T07:09:37.904Z,98862.91
2023-03-02T07:12:42.079Z,98906.16
2023-03-02T07:15:44.873Z,98907.84
2023-03-02T07:18:47.986Z,98908.69
2023-03-02T07:21:50.702Z,98837.03
2023-03-02T07:24:53.757Z,98911.16
2023-03-02T07:27:56.493Z,98897.81
2023-03-02T07:31:01.438Z,98907.47
2023-03-02T07:34:04.318Z,98848.16
2023-03-02T07:37:07.490Z,98893.91
2023-03-02T07:40:12.106Z,98847.84
2023-03-02T07:43:15.453Z,98914.75
2023-03-02T07:46:18.190Z,98825.38
2023-03-02T07:49:21.494Z,98820.81
2023-03-02T07:52:24.609Z,98817.06
2023-03-02T07:55:28.122Z,98795.56
2023-03-02T07:58:31.060Z,98889.72
2023-03-02T08:01:35.063Z,98900.03
2023-03-02T08:04:38.500Z,98901.63
2023-03-02T08:07:42.348Z,98777.78
2023-03-02T08:10:45.532Z,98904.53
2023-03-02T08:13:48.361Z,98899.78
2023-03-02T08:16:53.007Z,98907.50
2023-03-02T08:19:55.696Z,98865.87
2023-03-02T08:22:58.884Z,98911.34
2023-03-02T08:26:01.687Z,98906.59
2023-03-02T08:29:06.215Z,98913.41
2023-03-02T08:32:09.162Z,98908.56
2023-03-02T08:35:13.022Z,98900.56
2023-03-02T08:38:15.907Z,98899.50
2023-03-02T08:41:21.161Z,98900.19
2023-03-02T08:44:24.285Z,98908.75
2023-03-02T08:47:28.340Z,98902.06
2023-03-02T08:50:33.220Z,98901.63
2023-03-02T08:53:39.386Z,98902.56
2023-03-02T08:56:43.860Z,98790.78
2023-03-02T08:59:47.083Z,98826.84
2023-03-02T09:02:50.383Z,98831.50
2023-03-02T09:05:53.482Z,98819.44
2023-03-02T09:08:56.884Z,98897.47
2023-03-02T09:12:00.201Z,98751.47
2023-03-02T09:15:02.965Z,98894.69
2023-03-02T09:18:06.125Z,98895.75
2023-03-02T09:21:09.951Z,98891.06
2023-03-02T09:24:13.364Z,98741.00
2023-03-02T09:27:16.193Z,98886.06
2023-03-02T09:30:19.895Z,98828.38
2023-03-02T09:33:24.211Z,98884.31
2023-03-02T09:36:27.868Z,98819.25
2023-03-02T09:39:30.652Z,98882.84
2023-03-02T09:42:52.342Z,98680.75
2023-03-02T09:46:04.027Z,98897.31
2023-03-02T09:49:31.494Z,98890.75
2023-03-02T09:52:41.250Z,98891.66
2023-03-02T09:55:46.232Z,98782.47
2023-03-02T09:58:55.293Z,98862.38
2023-03-02T10:02:15.539Z,98876.44
2023-03-02T10:05:29.141Z,98854.75
2023-03-02T10:08:35.312Z,98871.06
2023-03-02T10:11:55.082Z,98869.09
2023-03-02T10:15:06.182Z,98724.03
2023-03-02T10:18:44.923Z,98863.06
2023-03-02T10:22:03.193Z,98870.69
2023-03-02T10:25:18.402Z,98881.63
2023-03-02T10:28:23.125Z,98884.59
2023-03-02T10:31:32.300Z,98792.50
2023-03-02T10:34:36.173Z,98863.63
2023-03-02T10:37:39.461Z,98872.22
2023-03-02T10:41:00.173Z,98870.00
2023-03-02T10:44:15.759Z,98856.28
2023-03-02T10:47:29.590Z,98856.13
2023-03-02T10:50:33.541Z,98778.09
2023-03-02T10:53:36.440Z,98846.72
2023-03-02T10:56:42.941Z,98719.31
2023-03-02T10:59:47.086Z,98842.81
2023-03-02T11:02:54.502Z,98839.00
2023-03-02T11:05:58.204Z,98847.22
2023-03-02T11:09:06.589Z,98828.31
2023-03-02T11:12:16.538Z,98842.13
2023-03-02T11:15:23.527Z,98693.47
2023-03-02T11:18:29.236Z,98836.34
2023-03-02T11:21:35.847Z,98843.00
2023-03-02T11:24:58.955Z,98833.72
2023-03-02T11:28:38.731Z,98678.28
2023-03-02T11:31:51.554Z,98827.34
2023-03-02T11:35:04.321Z,98833.72
2023-03-02T11:38:29.249Z,98817.97
2023-03-02T11:41:36.701Z,98823.03
2023-03-02T11:44:39.891Z,98829.66
2023-03-02T11:47:54.184Z,98802.25
2023-03-02T11:51:10.845Z,98801.69
2023-03-02T11:54:38.412Z,98788.97
2023-03-02T11:57:48.661Z,98810.41
2023-03-02T12:00:54.104Z,98750.44
2023-03-02T12:04:10.932Z,98785.00
2023-03-02T12:07:25.889Z,98769.66
2023-03-02T12:10:42.394Z,98787.84
2023-03-02T12:14:28.303Z,98782.53
2023-03-02T12:17:33.806Z,98715.81
2023-03-02T12:20:41.542Z,98781.56
2023-03-02T12:23:47.518Z,98729.38
2023-03-02T12:27:01.657Z,98777.19
2023-03-02T12:30:18.382Z,98770.59
2023-03-02T12:33:22.028Z,98783.31
2023-03-02T12:36:42.364Z,98769.06
2023-03-02T12:39:48.431Z,98698.06
2023-03-02T12:43:19.566Z,98776.34
2023-03-02T12:46:34.103Z,98764.78
2023-03-02T12:50:03.373Z,98767.63
2023-03-02T12:53:14.086Z,98713.03
2023-03-02T12:56:25.657Z,98761.03
2023-03-02T12:59:29.078Z,98755.62
2023-03-02T13:02:34.311Z,98756.94
2023-03-02T13:05:37.792Z,98749.09
2023-03-02T13:08:44.168Z,98604.13
2023-03-02T13:11:49.426Z,98742.34
2023-03-02T13:14:55.112Z,98680.81
2023-03-02T13:18:00.043Z,98726.16
2023-03-02T13:21:04.990Z,98733.13
2023-03-02T13:24:29.137Z,98730.72
2023-03-02T13:27:34.115Z,98741.19
2023-03-02T13:30:47.678Z,98730.81
2023-03-02T13:33:53.166Z,98684.44
2023-03-02T13:36:55.890Z,98725.84
2023-03-02T13:40:01.161Z,98710.72
2023-03-02T13:43:08.695Z,98708.44
2023-03-02T13:46:11.799Z,98705.81
2023-03-02T13:49:14.724Z,98716.03
2023-03-02T13:52:26.101Z,98709.50
2023-03-02T13:55:29.042Z,98699.78
2023-03-02T13:58:35.718Z,98694.22
2023-03-02T14:01:38.666Z,98686.00
2023-03-02T14:04:41.977Z,98692.97
2023-03-02T14:07:44.924Z,98644.41
2023-03-02T14:10:51.332Z,98686.06
2023-03-02T14:13:54.934Z,98682.59
2023-03-02T14:16:57.969Z,98675.94
2023-03-02T14:20:03.739Z,98678.06
2023-03-02T14:23:08.763Z,98659.13
2023-03-02T14:26:41.115Z,98666.13
2023-03-02T14:29:45.551Z,98677.13
2023-03-02T14:32:48.554Z,98661.34
2023-03-02T14:35:54.066Z,98654.44
2023-03-02T14:38:58.156Z,98659.37
2023-03-02T14:42:01.650Z,98660.66
2023-03-02T14:45:04.629Z,98651.69
2023-03-02T14:48:07.586Z,98657.97
2023-03-02T14:51:24.634Z,98651.31
2023-03-02T14:54:33.156Z,98651.94
2023-03-02T14:57:38.612Z,98651.31
2023-03-02T15:00:43.535Z,98640.19
2023-03-02T15:03:46.728Z,98641.22
2023-03-02T15:06:50.410Z,98566.19
2023-03-02T15:09:53.202Z,98636.69
2023-03-02T15:12:56.437Z,98635.19
2023-03-02T15:15:59.381Z,98583.09
2023-03-02T15:19:02.546Z,98631.91
2023-03-02T15:22:05.547Z,98628.03
2023-03-02T15:25:09.126Z,98645.16
2023-03-02T15:28:11.883Z,98547.81
2023-03-02T15:31:17.440Z,98641.53
2023-03-02T15:34:20.203Z,98647.56
2023-03-02T15:37:23.319Z,98601.09
2023-03-02T15:40:26.594Z,98642.78
2023-03-02T15:43:29.658Z,98534.72
2023-03-02T15:46:32.648Z,98648.62
2023-03-02T15:49:36.023Z,98655.00
2023-03-02T15:52:38.799Z,98570.81
2023-03-02T15:55:41.774Z,98518.41
2023-03-02T15:58:48.656Z,98651.25
2023-03-02T16:01:52.210Z,98658.44
2023-03-02T16:04:55.328Z,98655.38
2023-03-02T16:07:58.104Z,98656.69
2023-03-02T16:11:06.367Z,98651.44
2023-03-02T16:14:09.760Z,98652.66
2023-03-02T16:17:12.966Z,98656.47
2023-03-02T16:20:16.091Z,98653.94
2023-03-02T16:23:19.032Z,98655.06
2023-03-02T16:26:22.480Z,98658.78
2023-03-02T16:29:25.516Z,98653.69
2023-03-02T16:32:28.307Z,98648.50
2023-03-02T16:35:32.313Z,98644.34
2023-03-02T16:38:36.834Z,98664.78
2023-03-02T16:41:42.239Z,98669.59
2023-03-02T16:44:46.125Z,98673.44
2023-03-02T16:47:49.257Z,98673.81
2023-03-02T16:50:55.897Z,98653.78
2023-03-02T16:53:59.304Z,98675.22
2023-03-02T16:57:02.066Z,98674.37
2023-03-02T17:00:07.418Z,98677.31
2023-03-02T17:03:11.556Z,98679.12
2023-03-02T17:06:15.835Z,98684.72
2023-03-02T17:09:18.748Z,98686.78
2023-03-02T17:12:21.770Z,98692.63
2023-03-02T17:15:24.634Z,98690.91
2023-03-02T17:18:28.550Z,98688.19
2023-03-02T17:21:31.239Z,98698.06
2023-03-02T17:24:34.609Z,98689.97
2023-03-02T17:27:37.804Z,98690.97
2023-03-02T17:30:42.912Z,98687.59
2023-03-02T17:33:45.856Z,98687.69
2023-03-02T17:36:49.054Z,98691.31
2023-03-02T17:39:52.439Z,98683.50
2023-03-02T17:42:57.658Z,98688.06
2023-03-02T17:46:15.730Z,98686.41
2023-03-02T17:49:19.201Z,98686.44
2023-03-02T17:52:22.096Z,98674.09
2023-03-02T17:55:25.847Z,98686.59
2023-03-02T17:58:42.817Z,98695.69
2023-03-02T18:01:47.604Z,98695.53
2023-03-02T18:04:51.345Z,98695.91
2023-03-02T18:07:54.620Z,98693.50
2023-03-02T18:11:00.320Z,98692.69
2023-03-02T18:14:03.724Z,98701.66
2023-03-02T18:17:09.306Z,98697.37
2023-03-02T18:20:12.506Z,98691.44
2023-03-02T18:23:16.217Z,98691.63
2023-03-02T18:26:18.911Z,98689.81
2023-03-02T18:29:23.114Z,98691.72
2023-03-02T18:32:26.112Z,98697.25
2023-03-02T18:35:30.447Z,98694.00
2023-03-02T18:38:34.215Z,98688.78
2023-03-02T18:41:37.140Z,98688.00
2023-03-02T18:44:44.970Z,98684.53
2023-03-02T18:47:48.104Z,98687.31
2023-03-02T18:50:51.592Z,98689.09
2023-03-02T18:53:55.425Z,98691.94
2023-03-02T18:56:58.939Z,98693.69
2023-03-02T19:00:03.231Z,98688.56
2023-03-02T19:03:06.126Z,98688.69
2023-03-02T19:06:09.592Z,98684.22
2023-03-02T19:09:12.748Z,98687.78
2023-03-02T19:12:16.694Z,98684.59
2023-03-02T19:15:20.239Z,98696.09
2023-03-02T19:18:24.725Z,98686.12
2023-03-02T19:21:29.890Z,98702.28
2023-03-02T19:24:33.747Z,98685.84
2023-03-02T19:27:36.851Z,98699.44
2023-03-02T19:30:41.183Z,98699.56
2023-03-02T19:33:45.374Z,98702.34
2023-03-02T19:36:48.614Z,98699.00
2023-03-02T19:39:51.463Z,98692.97
2023-03-02T19:42:54.627Z,98703.78
2023-03-02T19:45:58.019Z,98696.72
2023-03-02T19:49:01.902Z,98703.09
2023-03-02T19:52:05.507Z,98710.19
2023-03-02T19:55:10.608Z,98699.53
2023-03-02T19:58:17.579Z,98712.16
2023-03-02T20:01:22.237Z,98691.75
2023-03-02T20:04:25.247Z,98697.09
2023-03-02T20:07:28.213Z,98706.69
2023-03-02T20:10:35.512Z,98708.44
2023-03-02T20:13:38.786Z,98701.41
2023-03-02T20:16:42.197Z,98682.97
2023-03-02T20:19:47.152Z,98705.97
2023-03-02T20:22:50.476Z,98703.41
2023-03-02T20:25:54.906Z,98706.22
2023-03-02T20:28:59.876Z,98688.69
2023-03-02T20:32:04.428Z,98702.78
2023-03-02T20:35:07.996Z,98711.69
2023-03-02T20:38:20.177Z,98711.78
2023-03-02T20:41:23.760Z,98722.50
2023-03-02T20:44:30.958Z,98716.31
2023-03-02T20:47:34.381Z,98718.19
2023-03-02T20:50:39.666Z,98695.28
2023-03-02T20:53:45.601Z,98716.41
2023-03-02T20:56:48.650Z,98710.25
2023-03-02T20:59:52.266Z,98705.87
2023-03-02T21:02:57.269Z,98712.19
2023-03-02T21:06:00.973Z,98700.59
2023-03-02T21:09:05.752Z,98706.88
2023-03-02T21:12:08.914Z,98701.56
2023-03-02T21:15:12.688Z,98694.62
2023-03-02T21:18:15.946Z,98695.50
2023-03-02T21:21:23.051Z,98696.34
2023-03-02T21:24:28.564Z,98689.34
2023-03-02T21:27:31.604Z,98693.81
2023-03-02T21:30:36.751Z,98683.19
2023-03-02T21:33:39.877Z,98687.66
2023-03-02T21:36:46.831Z,98687.72
2023-03-02T21:39:50.091Z,98680.69
2023-03-02T21:42:54.713Z,98666.53
2023-03-02T21:45:58.612Z,98683.28
2023-03-02T21:49:01.874Z,98685.19
2023-03-02T21:52:05.020Z,98682.50
2023-03-02T21:55:08.682Z,98688.72
2023-03-02T21:58:12.249Z,98667.66
2023-03-02T22:01:15.659Z,98681.84
2023-03-02T22:04:18.521Z,98667.72
2023-03-02T22:07:21.348Z,98676.59
2023-03-02T22:10:31.974Z,98673.91
2023-03-02T22:13:34.920Z,98668.50
2023-03-02T22:16:40.028Z,98674.75
2023-03-02T22:19:43.918Z,98671.12
2023-03-02T22:22:49.045Z,98674.72
2023-03-02T22:25:54.842Z,98660.53
2023-03-02T22:29:06.053Z,98663.12
2023-03-02T22:32:38.248Z,98671.06
2023-03-02T22:35:42.591Z,98674.66
2023-03-02T22:38:48.344Z,98673.81
2023-03-02T22:41:56.044Z,98662.31
2023-03-02T22:44:58.611Z,98664.19
2023-03-02T22:48:01.852Z,98666.03
2023-03-02T22:51:19.842Z,98667.00
2023-03-02T22:54:27.127Z,98657.28
2023-03-02T22:57:32.236Z,98657.25
2023-03-02T23:00:40.869Z,98659.00
2023-03-02T23:03:45.085Z,98648.25
2023-03-02T23:06:55.270Z,98651.75
2023-03-02T23:09:58.168Z,98650.81
2023-03-02T23:13:01.102Z,98631.44
2023-03-02T23:16:13.821Z,98647.41
2023-03-02T23:19:16.991Z,98647.50
2023-03-02T23:22:19.687Z,98644.03
2023-03-02T23:25:22.769Z,98650.38
2023-03-02T23:28:25.510Z,98642.47
2023-03-02T23:31:28.664Z,98628.31
2023-03-02T23:34:31.545Z,98635.25
2023-03-02T23:37:34.615Z,98629.09
2023-03-02T23:40:37.236Z,98630.97
2023-03-02T23:43:40.772Z,98638.94
2023-03-02T23:46:43.389Z,98633.66
2023-03-02T23:49:46.464Z,98630.13
2023-03-02T23:52:49.282Z,98625.75
2023-03-02T23:55:53.965Z,98626.72
2023-03-02T23:58:57.468Z,98632.88
